Time;durP1;ratioP1;P1;durP2;ratioP2;P2;SDS_P1;SDS_P2;PMS_P1;PMS_P2;Temp;Humidity;BMP_temperature;BMP_pressure;BME280_temperature;BME280_humidity;BME280_pressure;Samples;Min_cycle;Max_cycle;Signal;HPM_P1;HPM_P2
2023/09/12 00:00:48;;;;;;;17.20;11.80;;;17.40;99.90;;;;;;5021898;28;20199;-59
2023/09/12 00:03:14;;;;;;;15.80;12.60;;;17.40;99.90;;;;;;5020511;28;20278;-59
2023/09/12 00:05:40;;;;;;;16.73;10.80;;;17.40;99.90;;;;;;5017621;28;20626;-60
2023/09/12 00:08:06;;;;;;;21.93;11.80;;;17.40;99.90;;;;;;5024438;28;20513;-59
2023/09/12 00:10:32;;;;;;;17.53;12.73;;;17.30;99.90;;;;;;5027599;28;20258;-60
2023/09/12 00:13:02;;;;;;;17.50;11.47;;;17.30;99.90;;;;;;5023262;28;20457;-59
2023/09/12 00:15:27;;;;;;;17.43;13.10;;;17.20;99.90;;;;;;5021516;28;20435;-59
2023/09/12 00:17:53;;;;;;;15.77;11.70;;;17.20;99.90;;;;;;5025319;28;21904;-59
2023/09/12 00:20:19;;;;;;;17.20;12.23;;;17.20;99.90;;;;;;5021709;28;20218;-59
2023/09/12 00:22:45;;;;;;;14.83;10.90;;;17.10;99.90;;;;;;5020910;28;20199;-59
2023/09/12 00:25:10;;;;;;;19.80;13.07;;;17.10;99.90;;;;;;5022177;28;20829;-59
2023/09/12 00:27:36;;;;;;;16.10;11.93;;;17.10;99.90;;;;;;5022719;28;20430;-60
2023/09/12 00:30:02;;;;;;;18.37;11.80;;;17.00;99.90;;;;;;5021673;28;20179;-60
2023/09/12 00:32:28;;;;;;;22.17;10.77;;;17.00;99.90;;;;;;5016023;28;20234;-59
2023/09/12 00:34:53;;;;;;;17.33;11.80;;;16.90;99.90;;;;;;5021223;28;20975;-59
2023/09/12 00:37:19;;;;;;;18.27;11.87;;;16.90;99.90;;;;;;5028548;28;20248;-59
2023/09/12 00:39:47;;;;;;;16.53;12.90;;;17.00;99.90;;;;;;5020415;28;20482;-59
2023/09/12 00:42:12;;;;;;;19.20;11.77;;;16.90;99.90;;;;;;5020913;28;20746;-59
2023/09/12 00:44:38;;;;;;;17.93;12.80;;;16.90;99.90;;;;;;5027490;28;20426;-59
2023/09/12 00:47:04;;;;;;;14.83;11.67;;;16.90;99.90;;;;;;5024111;28;20205;-59
2023/09/12 00:49:30;;;;;;;16.83;12.27;;;16.80;99.90;;;;;;5021166;28;20175;-59
2023/09/12 00:51:56;;;;;;;15.37;11.53;;;16.80;99.90;;;;;;5022797;28;20252;-59
2023/09/12 00:54:22;;;;;;;16.23;11.60;;;16.80;99.90;;;;;;5019855;28;20437;-59
2023/09/12 00:56:48;;;;;;;19.90;11.77;;;16.80;99.90;;;;;;5021482;28;20439;-59
2023/09/12 00:59:17;;;;;;;21.00;11.73;;;16.80;99.90;;;;;;5018697;28;21123;-59
2023/09/12 01:01:43;;;;;;;22.90;13.40;;;16.80;99.90;;;;;;5022009;28;20210;-59
2023/09/12 01:04:09;;;;;;;14.97;11.80;;;16.70;99.90;;;;;;5019326;28;20816;-60
2023/09/12 01:06:36;;;;;;;17.90;11.07;;;16.70;99.90;;;;;;5024244;28;20184;-59
2023/09/12 01:09:03;;;;;;;16.00;11.67;;;16.70;99.90;;;;;;5022012;28;20433;-59
2023/09/12 01:11:30;;;;;;;13.93;10.80;;;16.70;99.90;;;;;;5018230;28;20441;-58
2023/09/12 01:13:55;;;;;;;20.10;11.50;;;16.70;99.90;;;;;;5024164;28;20426;-59
2023/09/12 01:16:21;;;;;;;17.33;11.90;;;16.60;99.90;;;;;;5023812;28;20508;-59
2023/09/12 01:18:46;;;;;;;18.87;12.30;;;16.60;99.90;;;;;;5032629;28;20176;-59
2023/09/12 01:21:36;;;;;;;19.10;12.50;;;16.60;99.90;;;;;;5023340;28;20208;-59
2023/09/12 01:24:25;;;;;;;16.37;12.67;;;16.50;99.90;;;;;;5016217;28;20191;-59
2023/09/12 01:27:15;;;;;;;23.03;13.00;;;16.50;99.90;;;;;;5019812;28;20435;-59
2023/09/12 01:29:44;;;;;;;15.63;12.23;;;16.50;99.90;;;;;;5020546;28;20469;-59
2023/09/12 01:32:11;;;;;;;21.23;12.13;;;16.50;99.90;;;;;;5020844;28;20618;-59
2023/09/12 01:34:37;;;;;;;15.07;11.40;;;16.50;99.90;;;;;;5020560;28;20939;-59
2023/09/12 01:37:02;;;;;;;20.33;12.20;;;16.40;99.90;;;;;;5022962;28;20435;-59
2023/09/12 01:39:28;;;;;;;15.40;11.30;;;16.40;99.90;;;;;;5019494;28;20233;-59
2023/09/12 01:41:55;;;;;;;21.63;11.53;;;16.40;99.90;;;;;;5021004;28;20206;-59
2023/09/12 01:44:24;;;;;;;17.67;11.30;;;16.30;99.90;;;;;;5015872;28;20190;-59
2023/09/12 01:46:52;;;;;;;21.50;11.40;;;16.30;99.90;;;;;;5023481;28;20425;-61
2023/09/12 01:49:21;;;;;;;16.50;11.63;;;16.30;99.90;;;;;;5021583;28;20430;-59
2023/09/12 01:51:46;;;;;;;17.63;11.03;;;16.20;99.90;;;;;;5016429;28;21334;-59
2023/09/12 01:54:14;;;;;;;19.53;12.00;;;16.20;99.90;;;;;;5015642;28;20437;-59
2023/09/12 01:56:40;;;;;;;17.80;11.90;;;16.20;99.90;;;;;;5020156;28;20187;-59
2023/09/12 01:59:06;;;;;;;23.63;11.70;;;16.20;99.90;;;;;;5017120;28;20445;-59
2023/09/12 02:01:31;;;;;;;12.70;10.40;;;16.10;99.90;;;;;;5021612;28;20466;-58
2023/09/12 02:03:58;;;;;;;15.60;11.80;;;16.10;99.90;;;;;;5021350;28;20267;-59
2023/09/12 02:06:23;;;;;;;13.10;10.63;;;16.10;99.90;;;;;;5020991;28;20675;-59
2023/09/12 02:08:49;;;;;;;15.83;11.63;;;16.00;99.90;;;;;;5021131;28;20469;-59
2023/09/12 02:11:14;;;;;;;17.40;11.60;;;16.00;99.90;;;;;;5016492;28;20943;-59
2023/09/12 02:13:40;;;;;;;26.63;10.77;;;16.00;99.90;;;;;;5021275;28;20219;-59
2023/09/12 02:16:06;;;;;;;17.33;12.33;;;16.00;99.90;;;;;;5024006;28;20191;-60
2023/09/12 02:18:31;;;;;;;18.07;13.40;;;16.00;99.90;;;;;;5025021;28;20183;-60
2023/09/12 02:20:58;;;;;;;15.60;10.80;;;16.00;99.90;;;;;;5025624;28;20207;-59
2023/09/12 02:23:24;;;;;;;19.00;11.83;;;16.00;99.90;;;;;;5023220;28;20196;-59
2023/09/12 02:25:49;;;;;;;16.80;10.77;;;16.00;99.90;;;;;;5022461;28;20433;-59
2023/09/12 02:28:15;;;;;;;18.23;11.47;;;16.00;99.90;;;;;;5026565;28;20191;-59
2023/09/12 02:30:41;;;;;;;17.20;11.90;;;16.00;99.90;;;;;;5025443;28;20222;-59
2023/09/12 02:33:06;;;;;;;13.10;10.43;;;16.00;99.90;;;;;;5022200;28;20306;-59
2023/09/12 02:35:32;;;;;;;16.03;11.70;;;15.90;99.90;;;;;;5025754;28;20187;-59
2023/09/12 02:37:58;;;;;;;16.00;11.40;;;15.90;99.90;;;;;;5025176;28;20237;-59
2023/09/12 02:40:24;;;;;;;17.37;11.10;;;15.90;99.90;;;;;;5022135;28;20203;-60
2023/09/12 02:42:49;;;;;;;13.77;10.50;;;15.90;99.90;;;;;;5024027;28;20215;-59
2023/09/12 02:45:15;;;;;;;16.27;11.10;;;15.90;99.90;;;;;;5022912;28;20441;-59
2023/09/12 02:47:43;;;;;;;16.23;11.30;;;15.80;99.90;;;;;;5028045;28;20211;-59
2023/09/12 02:50:09;;;;;;;25.80;11.40;;;15.80;99.90;;;;;;5021577;28;20186;-59
2023/09/12 02:52:34;;;;;;;17.07;11.37;;;15.70;99.90;;;;;;5025238;28;20461;-59
2023/09/12 02:55:00;;;;;;;17.03;11.20;;;15.70;99.90;;;;;;5025342;28;20452;-58
2023/09/12 02:57:25;;;;;;;17.50;11.23;;;15.70;99.90;;;;;;5043408;28;20286;-59
2023/09/12 02:59:51;;;;;;;20.73;12.67;;;15.70;99.90;;;;;;5023138;28;20186;-58
2023/09/12 03:02:17;;;;;;;19.27;12.03;;;15.70;99.90;;;;;;5025345;28;20284;-59
2023/09/12 03:04:42;;;;;;;16.33;12.33;;;15.70;99.90;;;;;;5022575;28;20759;-59
2023/09/12 03:07:08;;;;;;;18.60;11.90;;;15.70;99.90;;;;;;5026132;28;20260;-58
2023/09/12 03:09:33;;;;;;;18.00;11.80;;;15.70;99.90;;;;;;5020718;28;20180;-59
2023/09/12 03:12:02;;;;;;;17.53;11.40;;;15.70;99.90;;;;;;5025689;28;20218;-59
2023/09/12 03:14:28;;;;;;;17.10;11.40;;;15.70;99.90;;;;;;5024061;28;20229;-59
2023/09/12 03:16:54;;;;;;;20.20;11.67;;;15.70;99.90;;;;;;5024083;28;20519;-60
2023/09/12 03:19:19;;;;;;;17.60;11.20;;;15.70;99.90;;;;;;5020841;28;20939;-59
2023/09/12 03:21:45;;;;;;;16.10;11.50;;;15.70;99.90;;;;;;5021280;28;20700;-59
2023/09/12 03:24:11;;;;;;;20.50;11.13;;;15.60;99.90;;;;;;5022815;28;20188;-59
2023/09/12 03:26:36;;;;;;;15.77;12.10;;;15.60;99.90;;;;;;5026802;28;20188;-59
2023/09/12 03:29:03;;;;;;;15.90;11.13;;;15.60;99.90;;;;;;5024510;28;20179;-60
2023/09/12 03:31:29;;;;;;;19.53;11.00;;;15.60;99.90;;;;;;5021954;28;20190;-59
2023/09/12 03:33:54;;;;;;;18.73;10.80;;;15.50;99.90;;;;;;5024449;28;20452;-59
2023/09/12 03:36:20;;;;;;;17.03;11.20;;;15.50;99.90;;;;;;5022435;28;20647;-59
2023/09/12 03:38:45;;;;;;;19.20;11.83;;;15.50;99.90;;;;;;5029949;28;20180;-60
2023/09/12 03:41:11;;;;;;;17.13;10.70;;;15.40;99.90;;;;;;5024613;28;20252;-59
2023/09/12 03:43:37;;;;;;;17.93;11.57;;;15.40;99.90;;;;;;5023257;28;20207;-60
2023/09/12 03:46:03;;;;;;;15.87;11.60;;;15.30;99.90;;;;;;5028905;28;20764;-59
2023/09/12 03:48:32;;;;;;;17.57;11.40;;;15.30;99.90;;;;;;5026155;28;21133;-59
2023/09/12 03:50:57;;;;;;;14.70;10.80;;;15.30;99.90;;;;;;5020604;28;20244;-59
2023/09/12 03:53:23;;;;;;;19.03;11.77;;;15.30;99.90;;;;;;5027690;28;20461;-59
2023/09/12 03:55:49;;;;;;;16.27;11.43;;;15.30;99.90;;;;;;5020434;28;20190;-59
2023/09/12 03:58:14;;;;;;;13.87;11.00;;;15.30;99.90;;;;;;5019203;28;20206;-59
2023/09/12 04:00:40;;;;;;;21.23;11.63;;;15.20;99.90;;;;;;5021269;28;20242;-59
2023/09/12 04:03:05;;;;;;;20.43;11.57;;;15.20;99.90;;;;;;5023839;28;20249;-60
2023/09/12 04:05:31;;;;;;;15.00;11.40;;;15.20;99.90;;;;;;5033032;28;20222;-60
2023/09/12 04:07:57;;;;;;;25.07;12.43;;;15.20;99.90;;;;;;5027252;28;20650;-60
2023/09/12 04:10:23;;;;;;;16.03;11.67;;;15.10;99.90;;;;;;5025493;28;20425;-59
2023/09/12 04:12:48;;;;;;;19.10;12.00;;;15.10;99.90;;;;;;5031912;28;20222;-58
2023/09/12 04:15:14;;;;;;;17.00;11.40;;;15.10;99.90;;;;;;5031314;28;20180;-57
2023/09/12 04:17:39;;;;;;;16.43;11.73;;;15.10;99.90;;;;;;5024398;28;20187;-57
2023/09/12 04:20:06;;;;;;;18.03;11.80;;;15.10;99.90;;;;;;5034729;28;20274;-58
2023/09/12 04:22:32;;;;;;;20.53;11.63;;;15.10;99.90;;;;;;5028212;28;20218;-59
2023/09/12 04:24:58;;;;;;;26.03;11.60;;;15.10;99.90;;;;;;5037588;28;20442;-58
2023/09/12 04:27:23;;;;;;;16.70;11.77;;;15.00;99.90;;;;;;5030356;28;20456;-56
2023/09/12 04:29:49;;;;;;;16.53;11.20;;;15.00;99.90;;;;;;5032901;28;20253;-56
2023/09/12 04:32:16;;;;;;;16.70;11.77;;;15.00;99.90;;;;;;5030380;28;20227;-58
2023/09/12 04:34:44;;;;;;;23.90;12.40;;;15.00;99.90;;;;;;5038078;28;20313;-59
2023/09/12 04:37:10;;;;;;;17.17;11.10;;;15.00;99.90;;;;;;5027543;28;20885;-59
2023/09/12 04:39:35;;;;;;;22.53;11.80;;;15.00;99.90;;;;;;5034787;28;20441;-59
2023/09/12 04:42:02;;;;;;;20.37;11.57;;;15.00;99.90;;;;;;5035817;28;20305;-59
2023/09/12 04:44:28;;;;;;;17.10;11.60;;;15.00;99.90;;;;;;5030065;28;20190;-59
2023/09/12 04:46:53;;;;;;;22.03;11.73;;;15.00;99.90;;;;;;5030444;28;20447;-58
2023/09/12 04:49:19;;;;;;;14.83;11.27;;;15.00;99.90;;;;;;5034258;28;20175;-60
2023/09/12 04:51:44;;;;;;;14.23;10.57;;;15.00;99.90;;;;;;5032868;28;20889;-60
2023/09/12 04:54:10;;;;;;;18.23;10.93;;;15.00;99.90;;;;;;5041506;28;20186;-59
2023/09/12 04:56:35;;;;;;;16.37;11.70;;;15.00;99.90;;;;;;5031105;28;20200;-60
2023/09/12 04:59:01;;;;;;;26.30;11.47;;;15.00;99.90;;;;;;5026199;28;20663;-59
2023/09/12 05:01:27;;;;;;;13.77;10.60;;;15.00;99.90;;;;;;5032650;28;20302;-60
2023/09/12 05:03:52;;;;;;;19.40;11.13;;;15.00;99.90;;;;;;5028881;28;20222;-60
2023/09/12 05:06:18;;;;;;;18.70;12.10;;;14.90;99.90;;;;;;5031797;28;20172;-59
2023/09/12 05:08:43;;;;;;;21.17;11.37;;;14.90;99.90;;;;;;5026973;28;20669;-59
2023/09/12 05:11:09;;;;;;;16.03;11.60;;;14.90;99.90;;;;;;5038471;28;20189;-59
2023/09/12 05:13:35;;;;;;;21.90;12.37;;;14.90;99.90;;;;;;5042994;28;20253;-60
2023/09/12 05:16:00;;;;;;;19.63;12.33;;;14.90;99.90;;;;;;5038597;28;20234;-58
2023/09/12 05:18:26;;;;;;;22.53;11.93;;;14.90;99.90;;;;;;5033566;28;20714;-60
2023/09/12 05:20:52;;;;;;;16.63;11.03;;;14.90;99.90;;;;;;5042332;28;20196;-59
2023/09/12 05:23:17;;;;;;;17.07;11.03;;;15.00;99.90;;;;;;5040380;28;20676;-59
2023/09/12 05:25:43;;;;;;;15.43;10.47;;;15.00;99.90;;;;;;5042364;28;20771;-59
2023/09/12 05:28:08;;;;;;;18.10;11.03;;;15.00;99.90;;;;;;5044869;28;20249;-59
2023/09/12 05:30:34;;;;;;;25.60;12.10;;;15.00;99.90;;;;;;5035842;28;20168;-59
2023/09/12 05:33:00;;;;;;;18.13;12.77;;;15.10;99.90;;;;;;5038757;28;20220;-59
2023/09/12 05:35:25;;;;;;;16.90;11.47;;;15.10;99.90;;;;;;5039285;28;20202;-59
2023/09/12 05:37:51;;;;;;;17.77;11.97;;;15.10;99.90;;;;;;5040597;28;20667;-59
2023/09/12 05:40:18;;;;;;;15.60;11.20;;;15.10;99.90;;;;;;5040505;28;20184;-59
2023/09/12 05:42:43;;;;;;;19.27;12.20;;;15.10;99.90;;;;;;5031249;28;20219;-59
2023/09/12 05:45:09;;;;;;;18.47;12.00;;;15.10;99.90;;;;;;5032347;28;20448;-59
2023/09/12 05:47:35;;;;;;;18.83;11.60;;;15.10;99.90;;;;;;5023855;28;20203;-59
2023/09/12 05:50:04;;;;;;;15.30;11.13;;;15.20;99.90;;;;;;5039290;28;20218;-58
2023/09/12 05:52:30;;;;;;;18.83;11.90;;;15.20;99.90;;;;;;5042232;28;20199;-59
2023/09/12 05:54:56;;;;;;;31.33;12.33;;;15.20;99.90;;;;;;5038016;28;20479;-59
2023/09/12 05:57:21;;;;;;;34.63;11.27;;;15.30;99.90;;;;;;5042906;28;20429;-59
2023/09/12 05:59:47;;;;;;;20.17;11.83;;;15.30;99.90;;;;;;5046298;28;20186;-59
2023/09/12 06:02:13;;;;;;;20.50;11.40;;;15.30;99.90;;;;;;5044743;28;20238;-59
2023/09/12 06:04:38;;;;;;;17.43;11.80;;;15.30;99.90;;;;;;5049949;28;20207;-59
2023/09/12 06:07:04;;;;;;;16.77;11.13;;;15.30;99.90;;;;;;5040669;28;20900;-59
2023/09/12 06:09:30;;;;;;;27.53;12.60;;;15.30;99.90;;;;;;5043489;28;20175;-59
2023/09/12 06:11:56;;;;;;;17.90;11.30;;;15.40;99.90;;;;;;5046642;28;20253;-58
2023/09/12 06:14:22;;;;;;;20.30;12.17;;;15.40;99.90;;;;;;5049379;28;20433;-59
2023/09/12 06:16:48;;;;;;;15.50;11.40;;;15.50;99.90;;;;;;5048174;28;20577;-59
2023/09/12 06:19:19;;;;;;;17.03;12.50;;;15.50;99.90;;;;;;5045121;28;20288;-60
2023/09/12 06:21:45;;;;;;;20.27;12.70;;;15.60;99.90;;;;;;5045201;28;20195;-59
2023/09/12 06:24:13;;;;;;;16.03;11.33;;;15.60;99.90;;;;;;5044383;28;20456;-59
2023/09/12 06:26:39;;;;;;;17.77;11.97;;;15.70;99.90;;;;;;5044800;28;20217;-59
2023/09/12 06:29:05;;;;;;;19.13;11.63;;;15.70;99.90;;;;;;5043184;28;20945;-59
2023/09/12 06:31:31;;;;;;;17.73;11.90;;;15.70;99.90;;;;;;5040216;28;20184;-58
2023/09/12 06:33:57;;;;;;;19.23;12.63;;;15.60;99.90;;;;;;5050128;28;20441;-59
2023/09/12 06:36:24;;;;;;;19.87;12.50;;;15.60;99.90;;;;;;5042503;28;20425;-59
2023/09/12 06:38:50;;;;;;;22.00;13.10;;;15.70;99.90;;;;;;5042149;28;20252;-60
2023/09/12 06:41:19;;;;;;;20.87;13.07;;;15.70;99.90;;;;;;5041299;28;20495;-59
2023/09/12 06:43:45;;;;;;;29.23;14.03;;;15.80;99.90;;;;;;5042231;28;20793;-59
2023/09/12 06:46:10;;;;;;;22.13;12.77;;;15.80;99.90;;;;;;5036941;28;20445;-60
2023/09/12 06:48:36;;;;;;;19.63;12.50;;;15.90;99.90;;;;;;5046287;28;20183;-59
2023/09/12 06:51:05;;;;;;;19.30;12.60;;;15.90;99.90;;;;;;5038477;28;20184;-59
2023/09/12 06:53:31;;;;;;;23.43;12.30;;;16.00;99.90;;;;;;5044050;28;20199;-59
2023/09/12 06:56:00;;;;;;;21.70;12.43;;;16.10;99.90;;;;;;5047999;28;20444;-60
2023/09/12 06:58:25;;;;;;;19.20;11.60;;;16.20;99.90;;;;;;5041781;28;20175;-59
2023/09/12 07:00:51;;;;;;;22.10;11.33;;;16.30;99.90;;;;;;5045741;28;20468;-59
2023/09/12 07:03:17;;;;;;;15.30;11.47;;;16.30;99.90;;;;;;5044503;28;20196;-60
2023/09/12 07:05:43;;;;;;;22.47;12.47;;;16.30;99.90;;;;;;5040842;28;20176;-59
2023/09/12 07:08:10;;;;;;;17.00;12.80;;;16.30;99.90;;;;;;5041115;28;20318;-59
2023/09/12 07:10:36;;;;;;;18.90;11.60;;;16.40;99.90;;;;;;5046078;28;20429;-60
2023/09/12 07:13:02;;;;;;;16.57;12.50;;;16.40;99.90;;;;;;5035914;28;20450;-59
2023/09/12 07:15:28;;;;;;;15.63;11.63;;;16.40;99.90;;;;;;5047316;28;20187;-59
2023/09/12 07:17:53;;;;;;;16.73;12.17;;;16.40;99.90;;;;;;5043542;28;20426;-59
2023/09/12 07:20:20;;;;;;;17.10;12.23;;;16.40;99.90;;;;;;5048948;28;20628;-59
2023/09/12 07:22:46;;;;;;;15.60;11.90;;;16.40;99.90;;;;;;5043679;28;20203;-59
2023/09/12 07:25:13;;;;;;;15.57;12.10;;;16.50;99.90;;;;;;5039397;28;20459;-58
2023/09/12 07:27:39;;;;;;;18.27;11.80;;;16.60;99.90;;;;;;5044157;28;20921;-60
2023/09/12 07:30:07;;;;;;;17.80;13.00;;;16.60;99.90;;;;;;5042681;28;20433;-59
2023/09/12 07:32:32;;;;;;;18.67;12.90;;;16.80;99.90;;;;;;5023139;28;20461;-60
2023/09/12 07:34:58;;;;;;;21.60;12.80;;;16.90;99.90;;;;;;5036192;28;20516;-59
2023/09/12 07:37:24;;;;;;;22.40;12.50;;;17.00;99.90;;;;;;5043363;28;20191;-59
2023/09/12 07:39:49;;;;;;;25.17;13.40;;;17.10;99.90;;;;;;5046169;28;20183;-59
2023/09/12 07:42:15;;;;;;;23.73;15.10;;;17.20;99.90;;;;;;5038606;28;20203;-59
2023/09/12 07:44:40;;;;;;;22.23;14.80;;;17.30;99.90;;;;;;5035278;28;20200;-58
2023/09/12 07:47:07;;;;;;;20.10;13.27;;;17.40;99.90;;;;;;5040923;28;20179;-58
2023/09/12 07:49:33;;;;;;;19.73;13.27;;;17.50;99.90;;;;;;5043293;28;20171;-59
2023/09/12 07:51:58;;;;;;;17.00;11.90;;;17.50;99.90;;;;;;5046040;28;21067;-58
2023/09/12 07:54:24;;;;;;;19.43;11.60;;;17.70;99.90;;;;;;5045208;28;20202;-59
2023/09/12 07:56:49;;;;;;;22.33;12.17;;;17.80;99.90;;;;;;5037564;28;20175;-60
2023/09/12 08:01:51;;;;;;;21.43;12.90;;;18.00;99.90;;;;;;5637892;22;20650;-61
2023/09/12 08:04:17;;;;;;;20.60;11.97;;;18.10;99.90;;;;;;5023214;28;20743;-58
2023/09/12 08:06:42;;;;;;;16.20;12.73;;;18.30;99.90;;;;;;5018292;28;20954;-60
2023/09/12 08:09:09;;;;;;;17.40;12.00;;;18.40;99.90;;;;;;5026004;28;20187;-60
2023/09/12 08:11:35;;;;;;;18.93;13.63;;;18.50;99.90;;;;;;5015462;28;20197;-60
2023/09/12 08:14:01;;;;;;;24.97;13.00;;;18.70;99.90;;;;;;5004002;28;20447;-60
2023/09/12 08:16:26;;;;;;;15.83;12.33;;;18.80;99.90;;;;;;5008568;28;20188;-59
2023/09/12 08:18:52;;;;;;;20.50;13.70;;;18.90;99.90;;;;;;5021798;28;20180;-59
2023/09/12 08:21:18;;;;;;;21.07;14.53;;;19.00;99.90;;;;;;5013724;28;20259;-60
2023/09/12 08:23:43;;;;;;;18.33;13.80;;;19.10;99.90;;;;;;5011137;28;20208;-59
2023/09/12 08:26:10;;;;;;;18.13;12.33;;;19.20;99.90;;;;;;5009803;28;20279;-59
2023/09/12 08:31:11;;;;;;;19.27;12.53;;;19.50;99.90;;;;;;5252060;22;20528;-61
2023/09/12 08:33:36;;;;;;;16.30;13.00;;;19.60;99.90;;;;;;5026167;28;20454;-61
2023/09/12 08:36:02;;;;;;;21.40;14.47;;;19.80;99.90;;;;;;4978255;28;20217;-61
2023/09/12 08:38:28;;;;;;;21.00;13.20;;;19.90;99.90;;;;;;4984186;28;20184;-61
2023/09/12 08:40:53;;;;;;;20.00;14.40;;;20.10;99.90;;;;;;4973630;28;20209;-61
2023/09/12 08:43:20;;;;;;;21.77;13.60;;;20.30;99.90;;;;;;4965073;28;20644;-61
2023/09/12 08:45:47;;;;;;;18.83;14.13;;;20.40;99.90;;;;;;4958901;28;20987;-61
2023/09/12 08:48:15;;;;;;;22.23;14.03;;;20.60;99.90;;;;;;4969627;28;20421;-60
2023/09/12 08:50:41;;;;;;;21.80;14.83;;;20.80;99.90;;;;;;4967222;28;20440;-60
2023/09/12 08:53:06;;;;;;;23.10;14.40;;;20.90;99.90;;;;;;4967186;28;20597;-60
2023/09/12 08:55:34;;;;;;;19.07;14.23;;;21.10;99.90;;;;;;4969797;28;20173;-61
2023/09/12 08:58:02;;;;;;;23.37;14.57;;;21.30;99.90;;;;;;4969100;28;20170;-60
2023/09/12 09:00:28;;;;;;;21.83;13.57;;;21.40;99.90;;;;;;4969563;28;20495;-61
2023/09/12 09:02:54;;;;;;;18.80;12.93;;;21.60;99.90;;;;;;4966814;28;20464;-62
2023/09/12 09:05:22;;;;;;;17.27;13.47;;;21.70;99.90;;;;;;4968629;28;20185;-61
2023/09/12 09:07:48;;;;;;;15.80;13.03;;;21.80;99.90;;;;;;4967978;28;21145;-60
2023/09/12 09:10:16;;;;;;;18.00;13.17;;;21.90;99.90;;;;;;4966415;28;20571;-60
2023/09/12 09:12:45;;;;;;;19.27;14.17;;;22.10;99.00;;;;;;4968551;28;20814;-62
2023/09/12 09:15:28;;;;;;;22.70;14.47;;;22.10;95.00;;;;;;4969153;28;20510;-61
2023/09/12 09:17:55;;;;;;;21.03;13.20;;;22.20;92.80;;;;;;4968060;28;20436;-62
2023/09/12 09:20:34;;;;;;;29.47;14.40;;;22.40;93.40;;;;;;4963860;28;20457;-61
2023/09/12 09:23:10;;;;;;;17.97;14.03;;;22.50;93.80;;;;;;4963917;28;20503;-62
2023/09/12 09:25:43;;;;;;;18.53;13.37;;;22.70;94.30;;;;;;4967519;28;20435;-61
2023/09/12 09:28:21;;;;;;;17.73;13.27;;;22.90;92.60;;;;;;4968506;28;20425;-62
2023/09/12 09:30:49;;;;;;;20.50;13.37;;;23.10;91.10;;;;;;4965243;28;20452;-62
2023/09/12 09:33:16;;;;;;;17.43;14.30;;;23.20;88.50;;;;;;4959669;28;20445;-60
2023/09/12 09:35:42;;;;;;;21.33;12.97;;;23.40;90.00;;;;;;4966352;28;20429;-60
2023/09/12 09:38:08;;;;;;;17.87;12.80;;;23.60;90.50;;;;;;4963756;28;20523;-62
2023/09/12 09:40:35;;;;;;;19.43;13.60;;;23.70;89.10;;;;;;4966139;28;20440;-61
2023/09/12 09:43:02;;;;;;;19.47;13.67;;;23.80;90.50;;;;;;4968575;28;20428;-61
2023/09/12 09:45:32;;;;;;;21.97;13.20;;;23.90;90.00;;;;;;4968623;28;20830;-61
2023/09/12 09:48:07;;;;;;;18.40;12.43;;;24.00;83.00;;;;;;4968665;28;20901;-61
2023/09/12 09:50:37;;;;;;;19.30;13.13;;;24.10;79.40;;;;;;4964974;28;20448;-61
2023/09/12 09:53:05;;;;;;;20.43;13.60;;;24.20;80.60;;;;;;4966539;28;20436;-61
2023/09/12 09:55:32;;;;;;;18.70;13.00;;;24.40;81.40;;;;;;4962815;28;20425;-61
2023/09/12 09:57:58;;;;;;;14.03;11.73;;;24.50;79.20;;;;;;4965842;28;20946;-61
2023/09/12 10:00:24;;;;;;;13.57;11.73;;;24.70;76.30;;;;;;4965150;28;20982;-62
2023/09/12 10:02:52;;;;;;;19.83;11.80;;;24.70;73.00;;;;;;4966296;28;21101;-64
2023/09/12 10:05:18;;;;;;;16.07;12.20;;;24.90;72.00;;;;;;4963268;28;20437;-61
2023/09/12 10:07:48;;;;;;;15.77;12.40;;;25.00;71.80;;;;;;4967556;28;20906;-62
2023/09/12 10:10:16;;;;;;;15.50;12.67;;;25.10;70.20;;;;;;4967016;28;20205;-63
2023/09/12 10:12:56;;;;;;;16.47;12.03;;;25.30;70.20;;;;;;4966341;28;20827;-60
2023/09/12 10:15:23;;;;;;;13.63;11.07;;;25.40;69.80;;;;;;4964858;28;20793;-61
2023/09/12 10:17:59;;;;;;;14.30;10.60;;;25.50;68.00;;;;;;4967170;28;20459;-61
2023/09/12 10:20:41;;;;;;;14.43;11.37;;;25.60;67.30;;;;;;4960135;28;20439;-61
2023/09/12 10:23:23;;;;;;;16.47;11.77;;;25.80;66.30;;;;;;4967787;28;20417;-60
2023/09/12 10:25:50;;;;;;;13.20;10.77;;;25.90;65.20;;;;;;4963176;28;21158;-64
2023/09/12 10:28:17;;;;;;;13.87;11.90;;;26.10;64.30;;;;;;4957605;28;20978;-61
2023/09/12 10:30:43;;;;;;;13.00;11.67;;;26.10;63.60;;;;;;4966102;28;20487;-62
2023/09/12 10:33:11;;;;;;;18.07;11.10;;;26.30;62.60;;;;;;4959297;28;20949;-62
2023/09/12 10:35:38;;;;;;;14.90;9.90;;;26.40;61.10;;;;;;4963654;28;20272;-63
2023/09/12 10:38:07;;;;;;;11.87;10.17;;;26.50;62.20;;;;;;4968529;28;20416;-61
2023/09/12 10:40:36;;;;;;;16.27;9.97;;;26.60;60.80;;;;;;4967274;28;20867;-63
2023/09/12 10:43:05;;;;;;;14.00;10.13;;;26.70;61.20;;;;;;4970972;28;20590;-61
2023/09/12 10:45:33;;;;;;;12.80;10.67;;;26.80;60.80;;;;;;4965918;28;22107;-61
2023/09/12 10:47:58;;;;;;;13.67;10.17;;;26.90;59.50;;;;;;4971462;28;20177;-61
2023/09/12 10:50:24;;;;;;;14.87;10.53;;;27.00;59.70;;;;;;4969412;28;20246;-61
2023/09/12 10:52:50;;;;;;;15.93;11.07;;;27.10;59.10;;;;;;4971788;28;20180;-64
2023/09/12 10:55:20;;;;;;;18.20;11.03;;;27.20;58.50;;;;;;4967782;28;21320;-59
2023/09/12 10:58:06;;;;;;;12.97;10.73;;;27.40;59.20;;;;;;4960151;28;20691;-63
2023/09/12 11:00:32;;;;;;;11.23;9.90;;;27.50;58.60;;;;;;4960472;28;20212;-62
2023/09/12 11:03:02;;;;;;;11.83;9.80;;;27.60;58.20;;;;;;4962078;28;20214;-61
2023/09/12 11:05:27;;;;;;;16.17;10.77;;;27.80;56.80;;;;;;4966009;28;20185;-61
2023/09/12 11:08:00;;;;;;;12.97;10.20;;;27.90;57.00;;;;;;4962091;28;20321;-62
2023/09/12 11:10:27;;;;;;;11.80;9.27;;;28.00;55.80;;;;;;4968080;28;20194;-61
2023/09/12 11:12:55;;;;;;;9.07;7.97;;;28.10;55.90;;;;;;4963553;28;20189;-61
2023/09/12 11:15:23;;;;;;;12.50;7.85;;;28.20;53.40;;;;;;4965755;28;20601;-61
2023/09/12 11:17:59;;;;;;;12.67;8.10;;;28.30;51.30;;;;;;4959450;28;20236;-61
2023/09/12 11:20:24;;;;;;;8.97;8.07;;;28.30;50.00;;;;;;4961229;28;20209;-61
2023/09/12 11:22:52;;;;;;;9.98;7.93;;;28.40;48.60;;;;;;4959013;28;20197;-64
2023/09/12 11:25:28;;;;;;;16.20;9.13;;;28.40;48.50;;;;;;4968956;28;20181;-61
2023/09/12 11:27:53;;;;;;;12.43;8.27;;;28.50;49.30;;;;;;4962512;28;20664;-61
2023/09/12 11:30:24;;;;;;;15.90;8.18;;;28.50;47.60;;;;;;4965105;28;20209;-61
2023/09/12 11:32:51;;;;;;;10.10;8.13;;;28.50;46.80;;;;;;4962444;28;20196;-64
2023/09/12 11:35:26;;;;;;;9.15;7.70;;;28.60;47.80;;;;;;4959585;28;20209;-63
2023/09/12 11:37:58;;;;;;;13.98;8.40;;;28.70;47.50;;;;;;4966496;28;20212;-62
2023/09/12 11:40:44;;;;;;;12.13;9.02;;;28.80;47.10;;;;;;4964399;28;20189;-60
2023/09/12 11:43:24;;;;;;;12.98;8.40;;;28.90;48.50;;;;;;4961457;28;20185;-62
2023/09/12 11:45:51;;;;;;;9.05;8.15;;;28.90;45.40;;;;;;4967060;28;20176;-64
2023/09/12 11:48:17;;;;;;;11.38;8.32;;;28.70;46.50;;;;;;4965629;28;20178;-63
2023/09/12 11:50:49;;;;;;;11.57;9.20;;;28.60;47.70;;;;;;4962371;28;20206;-62
2023/09/12 11:53:19;;;;;;;14.13;8.68;;;28.50;48.60;;;;;;4959835;28;20261;-62
2023/09/12 11:55:51;;;;;;;13.68;8.30;;;28.50;48.10;;;;;;4960642;28;20188;-63
2023/09/12 11:58:18;;;;;;;11.40;9.15;;;28.60;48.90;;;;;;4964499;28;20177;-62
2023/09/12 12:00:54;;;;;;;15.35;9.38;;;28.90;49.40;;;;;;4962358;28;20198;-61
2023/09/12 12:03:25;;;;;;;10.23;9.07;;;29.20;49.70;;;;;;4958538;28;20250;-62
2023/09/12 12:05:51;;;;;;;14.30;8.68;;;29.50;49.70;;;;;;4955152;28;20188;-64
2023/09/12 12:08:18;;;;;;;9.55;8.05;;;29.80;47.80;;;;;;4963078;28;20185;-62
2023/09/12 12:10:48;;;;;;;11.57;9.27;;;29.90;48.20;;;;;;4962674;28;20190;-64
2023/09/12 12:13:18;;;;;;;9.50;8.45;;;30.10;49.00;;;;;;4965523;28;20179;-61
2023/09/12 12:15:45;;;;;;;14.38;8.90;;;30.30;49.00;;;;;;4958424;28;20233;-62
2023/09/12 12:18:11;;;;;;;17.23;9.50;;;30.50;48.60;;;;;;4957545;28;20229;-62
2023/09/12 12:20:36;;;;;;;14.27;10.32;;;30.70;48.20;;;;;;4962978;28;20227;-62
2023/09/12 12:23:02;;;;;;;10.93;8.80;;;30.90;48.00;;;;;;4964182;28;20207;-62
2023/09/12 12:25:33;;;;;;;10.43;8.27;;;31.00;46.70;;;;;;4964937;28;20676;-64
2023/09/12 12:28:00;;;;;;;10.70;8.57;;;31.00;45.40;;;;;;4960974;28;20181;-62
2023/09/12 12:30:25;;;;;;;11.20;10.00;;;31.10;46.40;;;;;;4962615;28;20205;-62
2023/09/12 12:32:51;;;;;;;15.73;9.32;;;31.20;46.30;;;;;;4965194;28;20252;-61